Time;durP1;ratioP1;P1;durP2;ratioP2;P2;SDS_P1;SDS_P2;PMS_P1;PMS_P2;Temp;Humidity;BMP_temperature;BMP_pressure;BME280_temperature;BME280_humidity;BME280_pressure;Samples;Min_cycle;Max_cycle;Signal;HPM_P1;HPM_P2
2022/11/08 00:01:51;;;;;;;40.60;22.55;;;;;;;;;;2088890;28;20048;-46
2022/11/08 00:02:53;;;;;;;42.20;23.25;;;;;;;;;;2114978;28;20472;-47
2022/11/08 00:03:55;;;;;;;42.88;23.83;;;;;;;;;;2114980;28;20074;-49
2022/11/08 00:04:56;;;;;;;41.60;20.77;;;;;;;;;;2115135;28;20046;-46
2022/11/08 00:13:57;;;;;;;42.22;22.65;;;;;;;;;;2106652;28;20284;-46
2022/11/08 00:14:59;;;;;;;44.38;23.35;;;;;;;;;;2106448;28;20550;-46
2022/11/08 00:16:00;;;;;;;42.42;21.02;;;;;;;;;;2106526;28;20504;-47
2022/11/08 00:17:01;;;;;;;42.00;22.27;;;;;;;;;;2106459;28;20050;-48
2022/11/08 00:18:02;;;;;;;46.47;25.90;;;;;;;;;;2106666;28;20044;-46
2022/11/08 00:19:03;;;;;;;46.83;24.52;;;;;;;;;;2106643;28;20056;-46
2022/11/08 00:20:05;;;;;;;44.40;22.30;;;;;;;;;;2106595;28;20461;-46
2022/11/08 00:21:06;;;;;;;44.78;24.33;;;;;;;;;;2106431;28;20439;-46
2022/11/08 00:22:07;;;;;;;45.27;24.30;;;;;;;;;;2106536;28;20042;-47
2022/11/08 00:23:09;;;;;;;39.58;20.05;;;;;;;;;;2106456;28;20284;-47
2022/11/08 00:24:10;;;;;;;42.50;24.27;;;;;;;;;;2106391;28;20047;-48
2022/11/08 00:25:11;;;;;;;43.77;24.63;;;;;;;;;;2106533;28;20051;-46
2022/11/08 00:26:12;;;;;;;44.58;23.10;;;;;;;;;;2106482;28;20048;-46
2022/11/08 00:27:14;;;;;;;44.83;24.27;;;;;;;;;;2106449;28;20055;-45
2022/11/08 00:28:15;;;;;;;43.67;24.08;;;;;;;;;;2106351;28;20048;-46
2022/11/08 00:29:17;;;;;;;46.50;25.27;;;;;;;;;;2106561;28;20127;-46
2022/11/08 00:30:18;;;;;;;44.20;23.90;;;;;;;;;;2106438;28;20048;-46
2022/11/08 00:31:19;;;;;;;44.38;23.83;;;;;;;;;;2106406;28;20138;-46
2022/11/08 00:32:21;;;;;;;47.60;25.83;;;;;;;;;;2106286;28;20493;-50
2022/11/08 00:33:22;;;;;;;48.58;24.73;;;;;;;;;;2106696;28;20048;-46
2022/11/08 00:34:23;;;;;;;44.13;23.58;;;;;;;;;;2106401;28;20405;-47
2022/11/08 00:35:24;;;;;;;48.67;25.08;;;;;;;;;;2106623;28;20200;-48
2022/11/08 00:36:25;;;;;;;45.97;23.35;;;;;;;;;;2106554;28;20264;-46
2022/11/08 00:37:26;;;;;;;38.83;20.90;;;;;;;;;;2106249;28;20131;-46
2022/11/08 00:38:28;;;;;;;45.15;24.23;;;;;;;;;;2106384;28;20040;-46
2022/11/08 00:39:29;;;;;;;39.63;22.02;;;;;;;;;;2106418;28;20052;-48
2022/11/08 00:40:30;;;;;;;40.25;20.17;;;;;;;;;;2106394;28;20048;-46
2022/11/08 00:41:31;;;;;;;47.73;25.97;;;;;;;;;;2106296;28;20512;-46
2022/11/08 00:42:32;;;;;;;51.33;25.52;;;;;;;;;;2106442;28;20277;-46
2022/11/08 00:43:33;;;;;;;43.45;24.08;;;;;;;;;;2106400;28;20051;-47
2022/11/08 00:44:35;;;;;;;45.63;24.63;;;;;;;;;;2106232;28;20044;-47
2022/11/08 00:45:35;;;;;;;40.47;23.42;;;;;;;;;;2106366;28;20060;-46
2022/11/08 00:46:37;;;;;;;43.77;23.20;;;;;;;;;;2106305;28;20048;-46
2022/11/08 00:47:38;;;;;;;;;;;;;;;;;;2106780;28;20126;-46
2022/11/08 00:48:39;;;;;;;40.75;21.48;;;;;;;;;;2106198;28;20095;-46
2022/11/08 00:49:40;;;;;;;38.92;19.00;;;;;;;;;;2106418;28;20040;-46
2022/11/08 00:50:41;;;;;;;42.70;23.67;;;;;;;;;;2106277;28;20087;-46
2022/11/08 00:51:42;;;;;;;44.67;24.52;;;;;;;;;;2106414;28;20106;-46
2022/11/08 00:52:43;;;;;;;40.43;21.47;;;;;;;;;;2106339;28;20464;-46
2022/11/08 00:53:45;;;;;;;41.88;20.95;;;;;;;;;;2106447;28;20077;-46
2022/11/08 00:54:46;;;;;;;42.17;22.10;;;;;;;;;;2106361;28;20044;-49
2022/11/08 00:55:47;;;;;;;41.13;21.92;;;;;;;;;;2106369;28;20055;-46
2022/11/08 00:56:48;;;;;;;39.97;23.27;;;;;;;;;;2106393;28;20127;-46
2022/11/08 00:57:49;;;;;;;46.30;23.15;;;;;;;;;;2106104;28;20118;-46
2022/11/08 00:59:05;;;;;;;42.22;20.30;;;;;;;;;;2106299;28;20443;-46
2022/11/08 01:00:07;;;;;;;43.33;22.65;;;;;;;;;;2106194;28;20044;-46
2022/11/08 01:01:09;;;;;;;40.78;22.90;;;;;;;;;;2106351;28;20059;-46
2022/11/08 01:02:10;;;;;;;41.63;21.92;;;;;;;;;;2106081;28;20469;-47
2022/11/08 01:03:20;;;;;;;41.03;23.33;;;;;;;;;;2106351;28;20051;-46
2022/11/08 01:04:21;;;;;;;38.00;20.52;;;;;;;;;;2106249;28;20055;-48
2022/11/08 01:05:22;;;;;;;45.78;23.67;;;;;;;;;;2106306;28;20051;-46
2022/11/08 01:06:24;;;;;;;43.58;23.40;;;;;;;;;;2105920;28;20048;-46
2022/11/08 01:07:25;;;;;;;40.20;22.20;;;;;;;;;;2105675;28;20481;-46
2022/11/08 01:08:26;;;;;;;39.40;19.00;;;;;;;;;;2106037;28;20055;-46
2022/11/08 01:09:28;;;;;;;44.63;22.83;;;;;;;;;;2106171;28;20066;-46
2022/11/08 01:10:29;;;;;;;39.05;21.35;;;;;;;;;;2106095;28;20056;-46
2022/11/08 01:11:30;;;;;;;45.85;24.38;;;;;;;;;;2106278;28;20044;-46
2022/11/08 01:12:31;;;;;;;39.60;21.33;;;;;;;;;;2106193;28;20147;-47
2022/11/08 01:13:33;;;;;;;44.08;22.10;;;;;;;;;;2106196;28;20062;-46
2022/11/08 01:14:34;;;;;;;39.40;22.27;;;;;;;;;;2106123;28;20048;-45
2022/11/08 01:15:35;;;;;;;44.83;22.42;;;;;;;;;;2106251;28;20047;-47
2022/11/08 01:16:37;;;;;;;46.30;24.45;;;;;;;;;;2106205;28;20138;-46
2022/11/08 01:17:38;;;;;;;46.95;22.90;;;;;;;;;;2105932;28;20047;-46
2022/11/08 01:18:39;;;;;;;46.13;23.20;;;;;;;;;;2106258;28;20047;-46
2022/11/08 01:19:40;;;;;;;43.05;23.25;;;;;;;;;;2106166;28;20040;-46
2022/11/08 01:20:42;;;;;;;40.30;20.38;;;;;;;;;;2106071;28;20041;-49
2022/11/08 01:21:43;;;;;;;46.38;23.90;;;;;;;;;;2106073;28;20044;-46
2022/11/08 01:22:44;;;;;;;45.67;24.55;;;;;;;;;;2106036;28;20048;-46
2022/11/08 01:23:45;;;;;;;43.53;23.87;;;;;;;;;;2106247;28;20068;-46
2022/11/08 01:24:47;;;;;;;39.28;22.42;;;;;;;;;;2106080;28;20040;-46
2022/11/08 01:25:48;;;;;;;43.28;25.42;;;;;;;;;;2106230;28;20070;-48
2022/11/08 01:26:50;;;;;;;44.35;22.48;;;;;;;;;;2106011;28;20395;-46
2022/11/08 01:27:50;;;;;;;42.47;24.33;;;;;;;;;;2105926;28;20060;-46
2022/11/08 01:28:52;;;;;;;43.95;23.25;;;;;;;;;;2106035;28;20047;-46
2022/11/08 01:29:53;;;;;;;41.10;22.48;;;;;;;;;;2106047;28;20404;-46
2022/11/08 01:30:54;;;;;;;42.83;22.60;;;;;;;;;;2106112;28;20054;-46
2022/11/08 01:31:55;;;;;;;40.63;22.40;;;;;;;;;;2106002;28;20048;-46
2022/11/08 01:32:57;;;;;;;43.00;21.98;;;;;;;;;;2105979;28;20051;-46
2022/11/08 01:33:58;;;;;;;42.35;24.63;;;;;;;;;;2106239;28;20473;-46
2022/11/08 01:34:59;;;;;;;41.88;20.70;;;;;;;;;;2106073;28;20044;-46
2022/11/08 01:36:00;;;;;;;47.28;24.88;;;;;;;;;;2106007;28;20404;-46
2022/11/08 01:37:01;;;;;;;45.85;20.67;;;;;;;;;;2105897;28;20488;-46
2022/11/08 01:38:03;;;;;;;40.17;23.88;;;;;;;;;;2106034;28;20159;-46
2022/11/08 01:39:04;;;;;;;;;;;;;;;;;;2106619;28;20048;-46
2022/11/08 01:40:07;;;;;;;41.30;23.55;;;;;;;;;;2106025;28;19920;-46
2022/11/08 01:41:10;;;;;;;41.45;20.02;;;;;;;;;;2105842;28;20052;-46
2022/11/08 01:42:11;;;;;;;42.30;21.42;;;;;;;;;;2105951;28;20048;-46
2022/11/08 01:43:30;;;;;;;37.83;20.87;;;;;;;;;;2106115;28;20043;-46
2022/11/08 01:44:31;;;;;;;37.38;20.85;;;;;;;;;;2105918;28;20116;-46
2022/11/08 01:45:50;;;;;;;38.55;21.50;;;;;;;;;;2106116;28;20051;-46
2022/11/08 01:46:51;;;;;;;35.25;18.73;;;;;;;;;;2105217;28;20044;-47
2022/11/08 01:47:52;;;;;;;43.28;22.23;;;;;;;;;;2105867;28;20040;-46
2022/11/08 01:48:55;;;;;;;42.77;22.43;;;;;;;;;;2106022;28;20086;-46
2022/11/08 01:49:57;;;;;;;42.83;22.10;;;;;;;;;;2106053;28;20052;-46
2022/11/08 01:50:58;;;;;;;34.90;19.52;;;;;;;;;;2105820;28;20052;-47
2022/11/08 01:52:20;;;;;;;39.17;21.52;;;;;;;;;;2105819;28;20067;-47
2022/11/08 01:53:21;;;;;;;37.95;18.65;;;;;;;;;;2105861;28;20055;-46
2022/11/08 01:54:25;;;;;;;39.07;22.13;;;;;;;;;;2106095;28;20055;-46
2022/11/08 01:55:29;;;;;;;44.17;24.85;;;;;;;;;;2105867;28;20288;-45
2022/11/08 01:56:30;;;;;;;37.92;21.95;;;;;;;;;;2105970;28;20052;-46
2022/11/08 01:57:34;;;;;;;44.08;24.85;;;;;;;;;;2105815;28;20048;-46
2022/11/08 01:58:36;;;;;;;38.75;21.20;;;;;;;;;;2105800;28;20047;-46
2022/11/08 01:59:39;;;;;;;44.40;23.55;;;;;;;;;;2105752;28;20446;-46
2022/11/08 02:00:40;;;;;;;42.63;22.77;;;;;;;;;;2105883;28;20105;-47
2022/11/08 02:01:41;;;;;;;41.42;23.65;;;;;;;;;;2105958;28;20044;-46
2022/11/08 02:02:44;;;;;;;44.47;23.88;;;;;;;;;;2105721;28;20131;-47
2022/11/08 02:03:46;;;;;;;36.13;20.00;;;;;;;;;;2105974;28;20052;-46
2022/11/08 02:04:47;;;;;;;36.45;19.52;;;;;;;;;;2105857;28;20040;-46
2022/11/08 02:05:48;;;;;;;36.67;20.90;;;;;;;;;;2105764;28;20083;-47
2022/11/08 02:06:50;;;;;;;45.13;23.53;;;;;;;;;;2105667;28;20055;-47
2022/11/08 02:07:53;;;;;;;38.70;22.13;;;;;;;;;;2105932;28;20040;-47
2022/11/08 02:08:55;;;;;;;40.83;21.83;;;;;;;;;;2105941;28;20097;-47
2022/11/08 02:09:57;;;;;;;42.88;21.30;;;;;;;;;;2105795;28;20044;-45
2022/11/08 02:10:59;;;;;;;39.92;24.30;;;;;;;;;;2105836;28;20059;-46
2022/11/08 02:12:01;;;;;;;43.40;21.50;;;;;;;;;;2105639;28;20068;-46
2022/11/08 02:13:02;;;;;;;;;;;;;;;;;;2106199;28;20048;-46
2022/11/08 02:14:06;;;;;;;38.33;18.55;;;;;;;;;;2105768;28;19920;-48
2022/11/08 02:15:08;;;;;;;45.17;23.60;;;;;;;;;;2105896;28;20044;-47
2022/11/08 02:16:10;;;;;;;38.92;21.20;;;;;;;;;;2105848;28;20052;-47
2022/11/08 02:17:11;;;;;;;43.90;22.60;;;;;;;;;;2105671;28;20051;-47
2022/11/08 02:18:13;;;;;;;41.43;20.30;;;;;;;;;;2105889;28;20127;-45
2022/11/08 02:19:14;;;;;;;;;;;;;;;;;;2107276;28;20048;-46
2022/11/08 02:20:15;;;;;;;39.70;18.70;;;;;;;;;;2107334;28;19959;-47
2022/11/08 02:21:19;;;;;;;39.60;22.58;;;;;;;;;;2107361;28;20404;-46
2022/11/08 02:22:24;;;;;;;41.88;20.20;;;;;;;;;;2107316;28;20044;-46
2022/11/08 02:23:26;;;;;;;42.60;24.10;;;;;;;;;;2107231;28;20591;-46
2022/11/08 02:24:28;;;;;;;39.03;23.67;;;;;;;;;;2107337;28;20048;-45
2022/11/08 02:25:29;;;;;;;39.85;22.63;;;;;;;;;;2107196;28;20047;-46
2022/11/08 02:26:31;;;;;;;37.20;19.38;;;;;;;;;;2107186;28;20486;-47
2022/11/08 02:27:32;;;;;;;37.38;21.52;;;;;;;;;;2107166;28;20078;-46
2022/11/08 02:28:36;;;;;;;42.35;21.40;;;;;;;;;;2107278;28;20048;-47
2022/11/08 02:29:38;;;;;;;41.10;21.75;;;;;;;;;;2107257;28;20055;-45
2022/11/08 02:30:39;;;;;;;42.25;20.73;;;;;;;;;;2107250;28;20400;-45
2022/11/08 02:31:40;;;;;;;40.58;22.50;;;;;;;;;;2107277;28;20048;-46
2022/11/08 02:32:42;;;;;;;42.83;22.42;;;;;;;;;;2107233;28;20040;-47
2022/11/08 02:33:43;;;;;;;41.08;22.65;;;;;;;;;;2107358;28;20051;-46
2022/11/08 02:34:46;;;;;;;40.80;22.45;;;;;;;;;;2107188;28;20460;-47
2022/11/08 02:35:48;;;;;;;43.33;21.13;;;;;;;;;;2107358;28;20048;-46
2022/11/08 02:36:49;;;;;;;;;;;;;;;;;;2107380;28;20044;-46
2022/11/08 02:37:50;;;;;;;40.83;21.83;;;;;;;;;;2107093;28;20393;-47
2022/11/08 02:38:52;;;;;;;36.97;21.30;;;;;;;;;;2107124;28;20055;-48
2022/11/08 02:39:54;;;;;;;40.35;19.85;;;;;;;;;;2107510;28;20276;-45
2022/11/08 02:40:56;;;;;;;39.58;23.08;;;;;;;;;;2107101;28;20480;-46
2022/11/08 02:41:57;;;;;;;36.65;21.85;;;;;;;;;;2106965;28;20549;-45
2022/11/08 02:42:58;;;;;;;42.63;22.53;;;;;;;;;;2107181;28;20075;-46
2022/11/08 02:43:59;;;;;;;46.17;21.20;;;;;;;;;;2107244;28;20052;-47
2022/11/08 02:45:00;;;;;;;38.10;21.40;;;;;;;;;;2107059;28;20083;-46
2022/11/08 02:46:01;;;;;;;38.15;20.95;;;;;;;;;;2107105;28;20527;-47
2022/11/08 02:47:03;;;;;;;39.63;19.45;;;;;;;;;;2107260;28;20071;-47
2022/11/08 02:48:04;;;;;;;39.58;20.45;;;;;;;;;;2106999;28;20044;-49
2022/11/08 02:49:05;;;;;;;42.72;23.23;;;;;;;;;;2107123;28;20554;-46
2022/11/08 02:50:07;;;;;;;40.28;22.48;;;;;;;;;;2107107;28;20052;-45
2022/11/08 02:51:08;;;;;;;42.58;21.70;;;;;;;;;;2107192;28;20052;-46
2022/11/08 02:52:09;;;;;;;41.05;21.65;;;;;;;;;;2107100;28;20136;-46
2022/11/08 02:53:10;;;;;;;44.92;23.33;;;;;;;;;;2107181;28;20048;-47
2022/11/08 02:54:12;;;;;;;44.30;22.98;;;;;;;;;;2106996;28;20404;-49
2022/11/08 02:55:13;;;;;;;40.03;23.65;;;;;;;;;;2107058;28;20396;-46
2022/11/08 02:56:14;;;;;;;40.75;23.33;;;;;;;;;;2107018;28;20508;-46
2022/11/08 02:57:15;;;;;;;38.83;18.70;;;;;;;;;;2107173;28;20040;-46
2022/11/08 02:58:16;;;;;;;39.92;23.17;;;;;;;;;;2107013;28;20059;-47
2022/11/08 02:59:18;;;;;;;39.63;23.85;;;;;;;;;;2107012;28;20072;-46
2022/11/08 03:00:19;;;;;;;39.73;21.10;;;;;;;;;;2107213;28;20480;-46
2022/11/08 03:01:20;;;;;;;37.42;20.60;;;;;;;;;;2107038;28;20051;-46
2022/11/08 03:02:21;;;;;;;37.63;21.75;;;;;;;;;;2107036;28;20082;-46
2022/11/08 03:03:23;;;;;;;42.03;23.08;;;;;;;;;;2107019;28;20412;-47
2022/11/08 03:04:24;;;;;;;36.65;22.08;;;;;;;;;;2107163;28;20055;-46
2022/11/08 03:05:25;;;;;;;41.17;21.80;;;;;;;;;;2107044;28;20052;-46
2022/11/08 03:06:27;;;;;;;36.13;17.65;;;;;;;;;;2106995;28;20055;-46
2022/11/08 03:07:28;;;;;;;39.67;22.80;;;;;;;;;;2106858;28;20044;-46
2022/11/08 03:08:29;;;;;;;36.95;20.52;;;;;;;;;;2106823;28;20501;-46
2022/11/08 03:09:30;;;;;;;40.25;22.67;;;;;;;;;;2106975;28;20047;-46
2022/11/08 03:10:32;;;;;;;41.88;22.35;;;;;;;;;;2106979;28;20044;-46
2022/11/08 03:11:33;;;;;;;42.55;21.45;;;;;;;;;;2106944;28;20059;-46
2022/11/08 03:12:34;;;;;;;37.43;21.83;;;;;;;;;;2106894;28;20044;-47
2022/11/08 03:13:35;;;;;;;35.95;21.13;;;;;;;;;;2107096;28;20048;-46
2022/11/08 03:14:36;;;;;;;38.20;21.03;;;;;;;;;;2106973;28;20044;-48
2022/11/08 03:15:37;;;;;;;38.72;22.30;;;;;;;;;;2106885;28;20048;-46
2022/11/08 03:16:38;;;;;;;40.38;21.33;;;;;;;;;;2106997;28;20050;-47
2022/11/08 03:17:39;;;;;;;42.67;21.63;;;;;;;;;;2106951;28;20036;-49
2022/11/08 03:18:40;;;;;;;41.20;23.85;;;;;;;;;;2106920;28;20404;-46
2022/11/08 03:19:41;;;;;;;40.80;23.42;;;;;;;;;;2106869;28;20396;-47
2022/11/08 03:20:43;;;;;;;40.20;22.27;;;;;;;;;;2106885;28;20094;-46
2022/11/08 03:21:44;;;;;;;43.05;21.63;;;;;;;;;;2106905;28;20040;-48
2022/11/08 03:22:45;;;;;;;39.75;20.80;;;;;;;;;;2106932;28;20332;-48
2022/11/08 03:23:46;;;;;;;40.75;23.38;;;;;;;;;;2106855;28;20055;-46
2022/11/08 03:24:47;;;;;;;37.77;18.47;;;;;;;;;;2107033;28;20051;-46
2022/11/08 03:25:49;;;;;;;35.78;20.98;;;;;;;;;;2106870;28;20043;-46
2022/11/08 03:26:50;;;;;;;37.53;22.73;;;;;;;;;;2106932;28;20043;-48
2022/11/08 03:27:51;;;;;;;35.83;20.92;;;;;;;;;;2106899;28;20094;-46
2022/11/08 03:28:52;;;;;;;39.45;23.50;;;;;;;;;;2106709;28;20052;-46
2022/11/08 03:29:53;;;;;;;35.90;18.50;;;;;;;;;;2106522;28;20048;-47
2022/11/08 03:30:55;;;;;;;41.53;20.33;;;;;;;;;;2107040;28;20051;-46
2022/11/08 03:31:56;;;;;;;36.15;21.25;;;;;;;;;;2106924;28;20043;-47
2022/11/08 03:32:57;;;;;;;36.22;21.17;;;;;;;;;;2106769;28;20036;-46
2022/11/08 03:33:58;;;;;;;38.60;20.73;;;;;;;;;;2106680;28;20150;-47
2022/11/08 03:34:59;;;;;;;39.60;21.73;;;;;;;;;;2106838;28;20048;-47
2022/11/08 03:36:01;;;;;;;38.10;22.17;;;;;;;;;;2106730;28;20497;-47
2022/11/08 03:37:03;;;;;;;36.05;21.15;;;;;;;;;;2106723;28;20052;-47
2022/11/08 03:38:04;;;;;;;40.90;22.60;;;;;;;;;;2106915;28;20051;-46
2022/11/08 03:39:05;;;;;;;37.67;20.58;;;;;;;;;;2106943;28;20055;-51
2022/11/08 03:40:07;;;;;;;33.53;20.65;;;;;;;;;;2106814;28;20496;-51
2022/11/08 03:41:09;;;;;;;38.25;20.70;;;;;;;;;;2106898;28;20058;-50
2022/11/08 03:42:10;;;;;;;40.72;23.08;;;;;;;;;;2106629;28;20047;-50
2022/11/08 03:43:11;;;;;;;39.08;21.23;;;;;;;;;;2106892;28;20409;-52
2022/11/08 03:44:12;;;;;;;38.67;21.67;;;;;;;;;;2106764;28;20319;-50
2022/11/08 03:45:14;;;;;;;38.85;19.30;;;;;;;;;;2106946;28;20056;-52
2022/11/08 03:46:15;;;;;;;41.70;23.33;;;;;;;;;;2106819;28;20082;-49
2022/11/08 03:47:17;;;;;;;40.70;22.70;;;;;;;;;;2106796;28;20498;-50
2022/11/08 03:48:17;;;;;;;41.35;21.33;;;;;;;;;;2106578;28;20414;-51
2022/11/08 03:49:19;;;;;;;40.08;22.27;;;;;;;;;;2106678;28;20540;-52
2022/11/08 03:50:20;;;;;;;38.70;21.42;;;;;;;;;;2106701;28;20048;-49
2022/11/08 03:51:28;;;;;;;38.67;21.25;;;;;;;;;;2106799;28;20044;-46
2022/11/08 03:52:38;;;;;;;40.83;23.05;;;;;;;;;;2113374;28;20051;-50
2022/11/08 03:53:39;;;;;;;40.78;20.95;;;;;;;;;;2114878;28;20403;-46
2022/11/08 03:54:40;;;;;;;40.90;23.50;;;;;;;;;;2114316;28;20446;-49
2022/11/08 03:55:41;;;;;;;35.60;18.60;;;;;;;;;;2114366;28;20150;-46
2022/11/08 03:56:43;;;;;;;43.17;22.60;;;;;;;;;;2114122;28;20047;-45
2022/11/08 03:57:45;;;;;;;38.33;22.45;;;;;;;;;;2114087;28;20042;-46
2022/11/08 03:58:46;;;;;;;33.15;19.15;;;;;;;;;;2114511;28;20071;-49
2022/11/08 03:59:47;;;;;;;37.13;20.58;;;;;;;;;;2114880;28;20056;-49
2022/11/08 04:00:48;;;;;;;39.53;21.87;;;;;;;;;;2114302;28;20059;-50
2022/11/08 04:01:49;;;;;;;39.75;22.25;;;;;;;;;;2114532;28;20074;-50
2022/11/08 04:02:51;;;;;;;37.88;22.17;;;;;;;;;;2114699;28;20043;-45
2022/11/08 04:03:51;;;;;;;41.75;22.63;;;;;;;;;;2114910;28;20054;-49
2022/11/08 04:04:53;;;;;;;39.10;22.40;;;;;;;;;;2114743;28;20495;-46
2022/11/08 04:05:54;;;;;;;38.65;19.58;;;;;;;;;;2114771;28;20040;-49
2022/11/08 04:06:55;;;;;;;36.60;22.95;;;;;;;;;;2112810;28;20047;-46
2022/11/08 04:07:57;;;;;;;37.47;20.57;;;;;;;;;;2106487;28;20378;-49
2022/11/08 04:08:57;;;;;;;42.40;22.85;;;;;;;;;;2106252;28;20048;-45
2022/11/08 04:09:59;;;;;;;38.40;21.75;;;;;;;;;;2106478;28;20058;-49
2022/11/08 04:15:13;;;;;;;42.50;21.52;;;;;;;;;;2106374;28;20048;-49
2022/11/08 04:15:16;;;;;;;39.60;21.50;;;;;;;;;;2106319;28;20052;-46
2022/11/08 04:16:17;;;;;;;39.78;22.05;;;;;;;;;;2106451;28;20127;-49
2022/11/08 04:21:17;;;;;;;39.08;22.20;;;;;;;;;;2106317;28;20054;-50
2022/11/08 04:21:18;;;;;;;35.88;19.88;;;;;;;;;;2106499;28;20090;-49
2022/11/08 04:22:19;;;;;;;35.42;20.95;;;;;;;;;;2106080;28;20047;-46
2022/11/08 04:23:20;;;;;;;37.17;21.17;;;;;;;;;;2106219;28;20541;-46
2022/11/08 04:24:22;;;;;;;39.92;23.02;;;;;;;;;;2106283;28;20052;-49
2022/11/08 04:25:22;;;;;;;40.70;23.08;;;;;;;;;;2106290;28;20507;-49
2022/11/08 04:26:24;;;;;;;39.00;21.17;;;;;;;;;;2106294;28;20052;-45
2022/11/08 04:27:25;;;;;;;40.05;22.35;;;;;;;;;;2106355;28;20044;-46
2022/11/08 04:28:27;;;;;;;41.58;22.40;;;;;;;;;;2106106;28;20497;-50
2022/11/08 04:29:29;;;;;;;39.25;20.90;;;;;;;;;;2105983;28;20048;-49
2022/11/08 04:30:30;;;;;;;40.88;20.98;;;;;;;;;;2106333;28;20044;-49
2022/11/08 04:31:31;;;;;;;45.42;22.60;;;;;;;;;;2106186;28;20499;-50
2022/11/08 04:32:32;;;;;;;40.58;22.67;;;;;;;;;;2106330;28;20105;-46
2022/11/08 04:33:33;;;;;;;38.17;22.20;;;;;;;;;;2106221;28;20484;-46
2022/11/08 04:34:34;;;;;;;37.42;18.42;;;;;;;;;;2106321;28;20047;-46
2022/11/08 04:35:35;;;;;;;41.10;23.63;;;;;;;;;;2106227;28;20159;-50
2022/11/08 04:36:36;;;;;;;43.83;22.35;;;;;;;;;;2106265;28;20067;-46
2022/11/08 04:37:37;;;;;;;38.60;20.02;;;;;;;;;;2106211;28;20047;-46
2022/11/08 04:38:38;;;;;;;39.20;22.98;;;;;;;;;;2106264;28;20484;-45
2022/11/08 04:39:39;;;;;;;36.65;21.23;;;;;;;;;;2106176;28;20044;-45
2022/11/08 04:40:40;;;;;;;38.83;22.95;;;;;;;;;;2106191;28;20070;-49
2022/11/08 04:41:42;;;;;;;47.20;23.50;;;;;;;;;;2105305;28;20043;-50
2022/11/08 04:42:43;;;;;;;42.17;23.10;;;;;;;;;;2106061;28;20044;-46
2022/11/08 04:43:44;;;;;;;42.22;21.80;;;;;;;;;;2106255;28;20101;-46
2022/11/08 04:44:45;;;;;;;36.33;19.65;;;;;;;;;;2106167;28;20047;-49
2022/11/08 04:45:46;;;;;;;39.35;21.27;;;;;;;;;;2106106;28;20139;-49
2022/11/08 04:46:47;;;;;;;41.15;23.35;;;;;;;;;;2106149;28;20044;-48
2022/11/08 04:47:48;;;;;;;45.40;22.23;;;;;;;;;;2106274;28;20497;-46
2022/11/08 04:48:50;;;;;;;44.72;21.05;;;;;;;;;;2105571;28;20052;-49
2022/11/08 04:49:51;;;;;;;42.10;24.38;;;;;;;;;;2106254;28;20055;-48
2022/11/08 04:50:52;;;;;;;42.53;23.40;;;;;;;;;;2106038;28;20040;-48
2022/11/08 04:51:53;;;;;;;43.40;22.85;;;;;;;;;;2106078;28;20040;-46
2022/11/08 04:52:54;;;;;;;42.35;23.95;;;;;;;;;;2106102;28;20101;-45
2022/11/08 04:53:56;;;;;;;39.63;20.50;;;;;;;;;;2106077;28;20481;-46
2022/11/08 04:54:57;;;;;;;41.10;21.20;;;;;;;;;;2106107;28;20280;-46
2022/11/08 04:55:59;;;;;;;38.67;20.30;;;;;;;;;;2106279;28;20557;-45
2022/11/08 04:57:00;;;;;;;40.78;21.70;;;;;;;;;;2105942;28;20048;-49
2022/11/08 04:58:01;;;;;;;42.75;20.38;;;;;;;;;;2105954;28;20501;-44
2022/11/08 04:59:03;;;;;;;44.70;23.25;;;;;;;;;;2106102;28;20140;-45
2022/11/08 05:00:10;;;;;;;44.20;21.33;;;;;;;;;;2106069;28;20048;-48
2022/11/08 05:01:14;;;;;;;40.50;21.80;;;;;;;;;;2105932;28;20443;-44
2022/11/08 05:02:14;;;;;;;43.65;24.15;;;;;;;;;;2105924;28;20067;-45
2022/11/08 05:03:16;;;;;;;43.37;22.23;;;;;;;;;;2105976;28;20044;-49
2022/11/08 05:04:17;;;;;;;43.70;23.40;;;;;;;;;;2105949;28;20745;-44
2022/11/08 05:05:18;;;;;;;46.60;23.27;;;;;;;;;;2105931;28;20162;-45
2022/11/08 05:06:20;;;;;;;42.50;23.45;;;;;;;;;;2105958;28;20400;-48
2022/11/08 05:07:21;;;;;;;;;;;;;;;;;;2106148;28;20050;-45
2022/11/08 05:08:22;;;;;;;48.97;25.27;;;;;;;;;;2105890;28;19924;-45
2022/11/08 05:09:23;;;;;;;42.65;23.75;;;;;;;;;;2106030;28;20044;-45
2022/11/08 05:10:24;;;;;;;42.65;24.65;;;;;;;;;;2106062;28;20599;-44
2022/11/08 05:11:26;;;;;;;46.13;24.13;;;;;;;;;;2106076;28;20142;-44
2022/11/08 05:12:27;;;;;;;;;;;;;;;;;;2106350;28;20507;-45
2022/11/08 05:13:29;;;;;;;40.83;22.30;;;;;;;;;;2106080;28;19990;-45
2022/11/08 05:14:30;;;;;;;47.75;25.73;;;;;;;;;;2105893;28;20525;-45
2022/11/08 05:15:31;;;;;;;44.85;25.15;;;;;;;;;;2105887;28;20480;-49
2022/11/08 05:16:32;;;;;;;44.75;24.05;;;;;;;;;;2105814;28;20122;-49
2022/11/08 05:17:33;;;;;;;44.63;22.83;;;;;;;;;;2105940;28;20048;-44
2022/11/08 05:18:34;;;;;;;50.50;26.80;;;;;;;;;;2105918;28;20080;-49
2022/11/08 05:23:33;;;;;;;39.58;19.50;;;;;;;;;;2105878;28;20048;-46
2022/11/08 05:24:34;;;;;;;44.85;24.75;;;;;;;;;;2105997;28;20048;-46
2022/11/08 05:25:39;;;;;;;42.25;22.77;;;;;;;;;;2105552;28;20083;-48
2022/11/08 05:26:41;;;;;;;42.40;24.58;;;;;;;;;;2105768;28;20051;-49
2022/11/08 05:27:42;;;;;;;43.78;24.50;;;;;;;;;;2105747;28;20043;-46
2022/11/08 05:28:44;;;;;;;43.17;22.63;;;;;;;;;;2105916;28;20484;-47
2022/11/08 05:29:44;;;;;;;46.40;25.80;;;;;;;;;;2105886;28;20044;-49
2022/11/08 05:30:51;;;;;;;42.55;22.52;;;;;;;;;;2105953;28;20472;-48
2022/11/08 05:31:52;;;;;;;43.63;23.48;;;;;;;;;;2105822;28;20063;-49
2022/11/08 05:32:53;;;;;;;48.75;26.50;;;;;;;;;;2105700;28;20052;-49
2022/11/08 05:33:54;;;;;;;41.70;23.77;;;;;;;;;;2105874;28;20063;-47
2022/11/08 05:34:55;;;;;;;45.90;25.17;;;;;;;;;;2105839;28;20040;-49
2022/11/08 05:35:59;;;;;;;43.28;22.70;;;;;;;;;;2105878;28;20529;-49
2022/11/08 05:37:06;;;;;;;42.25;24.85;;;;;;;;;;2105711;28;20044;-49
2022/11/08 05:38:07;;;;;;;47.30;25.50;;;;;;;;;;2105901;28;20132;-49
2022/11/08 05:39:08;;;;;;;44.25;21.25;;;;;;;;;;2105779;28;20067;-47
2022/11/08 05:40:10;;;;;;;43.13;23.20;;;;;;;;;;2105974;28;20051;-49
2022/11/08 05:41:12;;;;;;;45.67;23.67;;;;;;;;;;2105732;28;20040;-46
2022/11/08 05:42:13;;;;;;;44.80;24.73;;;;;;;;;;2105702;28;20098;-45
2022/11/08 05:43:14;;;;;;;49.38;23.75;;;;;;;;;;2105757;28;20047;-45
2022/11/08 05:44:16;;;;;;;39.67;22.90;;;;;;;;;;2105859;28;20055;-49
2022/11/08 05:45:17;;;;;;;42.08;22.58;;;;;;;;;;2105875;28;20059;-49
2022/11/08 05:46:19;;;;;;;42.67;24.42;;;;;;;;;;2105873;28;20048;-49
2022/11/08 05:47:20;;;;;;;43.88;22.38;;;;;;;;;;2105633;28;20574;-46
2022/11/08 05:48:22;;;;;;;44.23;23.80;;;;;;;;;;2105835;28;20048;-46
2022/11/08 05:49:22;;;;;;;47.97;24.95;;;;;;;;;;2105587;28;20063;-48
2022/11/08 05:50:24;;;;;;;44.10;24.17;;;;;;;;;;2105693;28;20055;-49
2022/11/08 05:51:25;;;;;;;44.22;25.70;;;;;;;;;;2105528;28;20110;-49
2022/11/08 05:52:26;;;;;;;47.13;25.15;;;;;;;;;;2105597;28;20493;-46
2022/11/08 05:53:27;;;;;;;40.17;21.98;;;;;;;;;;2105413;28;20048;-47
2022/11/08 05:54:28;;;;;;;44.63;23.75;;;;;;;;;;2105723;28;20059;-46
2022/11/08 05:55:29;;;;;;;39.63;21.02;;;;;;;;;;2105782;28;20515;-46
2022/11/08 05:56:30;;;;;;;41.97;23.00;;;;;;;;;;2105779;28;20044;-49
2022/11/08 05:57:31;;;;;;;47.58;24.55;;;;;;;;;;2105563;28;20048;-46
2022/11/08 05:58:33;;;;;;;45.25;24.27;;;;;;;;;;2105648;28;20059;-46
2022/11/08 05:59:35;;;;;;;40.05;22.40;;;;;;;;;;2105721;28;20044;-49
2022/11/08 06:00:36;;;;;;;46.30;23.33;;;;;;;;;;2105760;28;20044;-46
2022/11/08 06:01:37;;;;;;;42.25;23.05;;;;;;;;;;2105696;28;20052;-49
2022/11/08 06:02:38;;;;;;;45.63;24.33;;;;;;;;;;2105765;28;20382;-50
2022/11/08 06:03:39;;;;;;;45.03;23.70;;;;;;;;;;2105559;28;20047;-49
2022/11/08 06:04:40;;;;;;;45.70;23.38;;;;;;;;;;2105560;28;20510;-49
2022/11/08 06:05:41;;;;;;;41.53;25.20;;;;;;;;;;2105583;28;20043;-46
2022/11/08 06:06:42;;;;;;;44.57;23.67;;;;;;;;;;2105720;28;20381;-46
2022/11/08 06:07:43;;;;;;;46.95;25.42;;;;;;;;;;2105460;28;20054;-46
2022/11/08 06:08:45;;;;;;;52.95;26.25;;;;;;;;;;2105662;28;20043;-46
2022/11/08 06:09:50;;;;;;;46.10;23.70;;;;;;;;;;2105715;28;20043;-49
2022/11/08 06:10:52;;;;;;;53.73;26.73;;;;;;;;;;2105712;28;20528;-46
2022/11/08 06:11:52;;;;;;;52.08;28.17;;;;;;;;;;2105520;28;20044;-49
2022/11/08 06:12:57;;;;;;;49.07;26.30;;;;;;;;;;2105528;28;20093;-49
2022/11/08 06:13:58;;;;;;;48.05;27.23;;;;;;;;;;2105762;28;20293;-49
2022/11/08 06:15:00;;;;;;;50.00;25.35;;;;;;;;;;2105540;28;20052;-45
2022/11/08 06:16:02;;;;;;;46.60;23.42;;;;;;;;;;2105721;28;20052;-45
2022/11/08 06:17:03;;;;;;;;;;;;;;;;;;2105962;28;20044;-46
2022/11/08 06:18:04;;;;;;;43.30;24.15;;;;;;;;;;2105659;28;20332;-49
2022/11/08 06:19:05;;;;;;;40.17;20.17;;;;;;;;;;2105727;28;20048;-50
2022/11/08 06:20:07;;;;;;;43.30;25.85;;;;;;;;;;2105543;28;20052;-49